LIPE/BLQ METAR and TAF weather

Enter ICAO airport designator
Station Type Date Time Source
LIPE METAR 2021/07/24 21:20 UTC NOAA

LIPE 242120Z 19009KT CAVOK 30/13 Q1009


Station Type Date Time Source
LIPE Decoded METAR 2021/07/24 21:20 UTC NOAA

Bologna / Borgo Panigale, Italy (LIPE) 44-32N 011-18E 49M
Jul 24, 2021 - 05:20 PM EDT / 2021.07.24 2120 UTC
Wind: from the S (190 degrees) at 10 MPH (9 KT):0
Visibility: greater than 7 mile(s):0
Temperature: 86 F (30 C)
Dew Point: 55 F (13 C)
Relative Humidity: 35%
Pressure (altimeter): 29.80 in. Hg (1009 hPa)
ob: LIPE 242120Z 19009KT CAVOK 30/13 Q1009
cycle: 21

Station Type Date Time Source
LIPE TAF 2021/07/24 18:21 UTC NOAA

TAF LIPE 241700Z 2418/2518 VRB06KT 9999 FEW040
TEMPO 2514/2518 SHRA

Example: see airport list